Time;durP1;ratioP1;P1;durP2;ratioP2;P2;SDS_P1;SDS_P2;PMS_P1;PMS_P2;Temp;Humidity;BMP_temperature;BMP_pressure;BME280_temperature;BME280_humidity;BME280_pressure;Samples;Min_cycle;Max_cycle;Signal;HPM_P1;HPM_P2
2023/04/14 00:01:32;;;;;;;7.33;4.37;;;;;;;;;;5010071;28;20620;-75
2023/04/14 00:03:58;;;;;;;5.17;3.63;;;;;;;;;;5009634;28;20175;-77
2023/04/14 00:06:26;;;;;;;6.53;4.27;;;;;;;;;;5010933;28;20213;-75
2023/04/14 00:08:52;;;;;;;5.77;4.17;;;;;;;;;;5011045;28;20545;-77
2023/04/14 00:11:18;;;;;;;17.93;7.50;;;;;;;;;;5011031;28;20182;-75
2023/04/14 00:13:44;;;;;;;11.07;5.73;;;;;;;;;;5010865;28;20183;-75
2023/04/14 00:16:11;;;;;;;10.53;5.17;;;;;;;;;;5010770;28;20277;-76
2023/04/14 00:18:37;;;;;;;9.90;5.00;;;;;;;;;;5010877;28;20291;-76
2023/04/14 00:21:04;;;;;;;8.47;4.20;;;;;;;;;;5009975;28;20209;-76
2023/04/14 00:23:30;;;;;;;9.07;4.57;;;;;;;;;;5010755;28;20268;-76
2023/04/14 00:25:56;;;;;;;9.60;4.83;;;;;;;;;;5010925;28;20662;-76
2023/04/14 00:28:22;;;;;;;7.17;4.37;;;;;;;;;;4993124;28;20349;-76
2023/04/14 00:30:48;;;;;;;7.73;4.13;;;;;;;;;;5010877;28;20182;-77
2023/04/14 00:33:14;;;;;;;5.67;3.87;;;;;;;;;;5009418;28;20184;-76
2023/04/14 00:35:41;;;;;;;6.57;3.70;;;;;;;;;;5013264;28;20721;-76
2023/04/14 00:38:07;;;;;;;7.40;3.80;;;;;;;;;;5012775;28;20599;-76
2023/04/14 00:40:33;;;;;;;5.60;3.80;;;;;;;;;;5013394;28;20609;-77
2023/04/14 00:42:59;;;;;;;8.07;4.00;;;;;;;;;;5012837;28;20187;-76
2023/04/14 00:45:26;;;;;;;9.63;4.50;;;;;;;;;;5014542;28;20249;-76
2023/04/14 00:47:52;;;;;;;8.93;4.30;;;;;;;;;;5012923;28;20203;-76
2023/04/14 00:50:19;;;;;;;7.63;4.13;;;;;;;;;;5014406;28;20604;-76
2023/04/14 00:52:46;;;;;;;7.93;3.83;;;;;;;;;;5012648;28;20186;-77
2023/04/14 00:55:12;;;;;;;6.30;3.63;;;;;;;;;;4996838;28;20183;-76
2023/04/14 00:57:39;;;;;;;8.67;3.97;;;;;;;;;;5012911;28;20207;-76
2023/04/14 01:00:07;;;;;;;6.63;3.87;;;;;;;;;;5013073;28;20704;-76
2023/04/14 01:02:33;;;;;;;8.77;4.30;;;;;;;;;;5013678;28;20290;-76
2023/04/14 01:05:00;;;;;;;5.37;3.63;;;;;;;;;;5013005;28;20172;-76
2023/04/14 01:07:26;;;;;;;6.43;3.87;;;;;;;;;;4996328;28;20215;-75
2023/04/14 01:09:55;;;;;;;11.87;5.83;;;;;;;;;;5012891;28;20238;-76
2023/04/14 01:12:49;;;;;;;8.53;4.50;;;;;;;;;;5013682;28;20175;-76
2023/04/14 01:15:30;;;;;;;9.37;3.83;;;;;;;;;;5012860;28;20171;-76
2023/04/14 01:18:02;;;;;;;5.83;3.50;;;;;;;;;;4993128;28;20211;-76
2023/04/14 01:20:32;;;;;;;5.27;3.67;;;;;;;;;;4993153;28;20191;-77
2023/04/14 01:23:01;;;;;;;4.53;3.70;;;;;;;;;;4993870;28;20164;-77
2023/04/14 01:25:39;;;;;;;5.63;4.10;;;;;;;;;;4992894;28;20263;-76
2023/04/14 01:28:21;;;;;;;6.17;4.20;;;;;;;;;;5009069;28;20195;-76
2023/04/14 01:30:47;;;;;;;5.10;3.70;;;;;;;;;;5009208;28;20226;-75
2023/04/14 01:33:16;;;;;;;6.03;4.13;;;;;;;;;;4992376;28;20207;-76
2023/04/14 01:35:45;;;;;;;5.87;4.10;;;;;;;;;;4976757;28;20180;-76
2023/04/14 01:38:21;;;;;;;5.90;3.80;;;;;;;;;;4976328;28;20212;-76
2023/04/14 01:40:50;;;;;;;4.70;3.50;;;;;;;;;;4992802;28;20222;-77
2023/04/14 01:43:17;;;;;;;7.40;3.60;;;;;;;;;;5008440;28;20180;-76
2023/04/14 01:45:46;;;;;;;5.07;3.60;;;;;;;;;;4993457;28;20238;-77
2023/04/14 01:48:12;;;;;;;7.63;4.57;;;;;;;;;;4992335;28;20562;-75
2023/04/14 01:50:40;;;;;;;8.03;4.90;;;;;;;;;;4992432;28;20239;-76
2023/04/14 01:53:07;;;;;;;7.30;4.27;;;;;;;;;;5009545;28;20230;-76
2023/04/14 01:55:36;;;;;;;6.80;3.93;;;;;;;;;;5015404;28;20202;-77
2023/04/14 01:58:03;;;;;;;6.47;3.90;;;;;;;;;;5022983;28;20191;-76
2023/04/14 02:00:31;;;;;;;9.53;4.83;;;;;;;;;;5012230;28;20206;-76
2023/04/14 02:03:01;;;;;;;8.13;4.00;;;;;;;;;;5026105;28;20245;-75
2023/04/14 02:05:30;;;;;;;8.97;4.23;;;;;;;;;;5012012;28;20679;-76
2023/04/14 02:07:57;;;;;;;6.87;4.30;;;;;;;;;;5011980;28;20222;-75
2023/04/14 02:10:24;;;;;;;8.67;4.73;;;;;;;;;;5011673;28;20209;-76
2023/04/14 02:12:51;;;;;;;7.23;3.60;;;;;;;;;;5012093;28;20168;-76
2023/04/14 02:15:18;;;;;;;6.53;4.07;;;;;;;;;;5014864;28;20213;-76
2023/04/14 02:17:46;;;;;;;6.17;3.33;;;;;;;;;;5031331;28;20205;-76
2023/04/14 02:20:13;;;;;;;4.37;3.30;;;;;;;;;;5030270;28;20184;-76
2023/04/14 02:22:40;;;;;;;4.30;3.10;;;;;;;;;;5014170;28;20220;-76
2023/04/14 02:25:07;;;;;;;4.70;3.40;;;;;;;;;;4992104;28;20186;-76
2023/04/14 02:27:36;;;;;;;4.30;3.20;;;;;;;;;;5012457;28;20210;-75
2023/04/14 02:30:07;;;;;;;6.80;3.60;;;;;;;;;;5012878;28;20298;-76
2023/04/14 02:32:34;;;;;;;7.77;4.17;;;;;;;;;;5012335;28;20190;-76
2023/04/14 02:35:27;;;;;;;7.20;3.53;;;;;;;;;;5013880;28;20198;-76
2023/04/14 02:37:56;;;;;;;4.30;3.27;;;;;;;;;;5010572;28;20211;-75
2023/04/14 02:40:26;;;;;;;3.70;3.00;;;;;;;;;;5011445;28;20194;-76
2023/04/14 02:42:56;;;;;;;3.43;2.90;;;;;;;;;;5024774;28;20218;-76
2023/04/14 02:45:23;;;;;;;3.43;2.83;;;;;;;;;;5032036;28;20261;-76
2023/04/14 02:47:52;;;;;;;4.83;3.40;;;;;;;;;;5030054;28;20260;-77
2023/04/14 02:50:20;;;;;;;6.20;3.90;;;;;;;;;;5015283;28;20689;-76
2023/04/14 02:52:57;;;;;;;6.10;3.70;;;;;;;;;;4994084;28;20187;-76
2023/04/14 02:55:28;;;;;;;7.93;4.10;;;;;;;;;;5012848;28;20188;-76
2023/04/14 02:57:54;;;;;;;6.60;4.27;;;;;;;;;;5020861;28;20233;-75
2023/04/14 03:00:21;;;;;;;5.43;4.47;;;;;;;;;;5010781;28;20191;-76
2023/04/14 03:02:51;;;;;;;6.00;4.90;;;;;;;;;;4999905;28;20192;-76
2023/04/14 03:05:18;;;;;;;4.10;3.70;;;;;;;;;;5011153;28;20621;-79
2023/04/14 03:07:52;;;;;;;6.07;4.33;;;;;;;;;;5001971;28;20214;-76
2023/04/14 03:10:18;;;;;;;5.37;3.63;;;;;;;;;;5026515;28;20301;-76
2023/04/14 03:12:46;;;;;;;5.03;3.50;;;;;;;;;;4994850;28;20550;-76
2023/04/14 03:15:14;;;;;;;5.50;3.60;;;;;;;;;;5010322;28;20218;-76
2023/04/14 03:17:42;;;;;;;5.87;4.00;;;;;;;;;;4994348;28;20308;-76
2023/04/14 03:20:09;;;;;;;6.30;4.00;;;;;;;;;;4994043;28;20206;-76
2023/04/14 03:22:39;;;;;;;5.27;3.43;;;;;;;;;;5009911;28;20229;-76
2023/04/14 03:25:06;;;;;;;6.67;3.97;;;;;;;;;;5010286;28;20276;-76
2023/04/14 03:27:35;;;;;;;5.20;4.03;;;;;;;;;;5010126;28;20299;-76
2023/04/14 03:30:02;;;;;;;5.27;4.23;;;;;;;;;;5010237;28;20273;-75
2023/04/14 03:32:33;;;;;;;5.63;3.23;;;;;;;;;;4993892;28;20182;-76
2023/04/14 03:35:00;;;;;;;5.53;3.50;;;;;;;;;;4994083;28;20776;-76
2023/04/14 03:37:27;;;;;;;4.97;3.43;;;;;;;;;;4993884;28;20197;-76
2023/04/14 03:39:58;;;;;;;5.93;3.53;;;;;;;;;;4993806;28;20210;-76
2023/04/14 03:42:26;;;;;;;4.70;3.70;;;;;;;;;;5011011;28;20270;-76
2023/04/14 03:44:55;;;;;;;7.00;4.20;;;;;;;;;;4993845;28;20195;-76
2023/04/14 03:47:23;;;;;;;5.30;3.53;;;;;;;;;;5010122;28;20199;-75
2023/04/14 03:49:50;;;;;;;6.67;3.80;;;;;;;;;;5009951;28;20218;-76
2023/04/14 03:52:19;;;;;;;5.87;4.30;;;;;;;;;;4993418;28;20579;-76
2023/04/14 03:54:46;;;;;;;6.70;4.00;;;;;;;;;;5009940;28;20179;-76
2023/04/14 03:57:16;;;;;;;4.87;3.60;;;;;;;;;;5009829;28;20206;-76
2023/04/14 03:59:44;;;;;;;6.07;4.07;;;;;;;;;;5009828;28;20186;-76
2023/04/14 04:02:11;;;;;;;6.47;3.97;;;;;;;;;;5009503;28;20198;-76
2023/04/14 04:04:38;;;;;;;4.63;3.60;;;;;;;;;;5009978;28;20189;-76
2023/04/14 04:07:09;;;;;;;3.92;3.30;;;;;;;;;;5013458;28;20430;-76
2023/04/14 04:09:36;;;;;;;5.17;3.93;;;;;;;;;;5020172;28;20439;-76
2023/04/14 04:12:04;;;;;;;5.20;3.90;;;;;;;;;;4997359;28;20429;-77
2023/04/14 04:14:30;;;;;;;5.43;3.60;;;;;;;;;;5028379;28;20194;-76
2023/04/14 04:16:59;;;;;;;5.97;3.13;;;;;;;;;;4999551;28;20223;-76
2023/04/14 04:19:25;;;;;;;5.17;3.53;;;;;;;;;;5027210;28;20187;-76
2023/04/14 04:21:53;;;;;;;4.60;3.23;;;;;;;;;;5020538;28;20233;-76
2023/04/14 04:24:21;;;;;;;5.23;3.43;;;;;;;;;;5016977;28;20195;-76
2023/04/14 04:26:47;;;;;;;6.23;4.17;;;;;;;;;;4983146;28;20784;-75
2023/04/14 04:29:13;;;;;;;6.43;3.70;;;;;;;;;;5013171;28;20756;-76
2023/04/14 04:31:40;;;;;;;7.03;3.93;;;;;;;;;;4997398;28;20285;-76
2023/04/14 04:34:07;;;;;;;4.70;3.90;;;;;;;;;;5013144;28;20179;-76
2023/04/14 04:36:37;;;;;;;7.17;3.73;;;;;;;;;;5013374;28;20191;-76
2023/04/14 04:39:03;;;;;;;4.77;3.80;;;;;;;;;;5013169;28;20254;-76
2023/04/14 04:41:34;;;;;;;5.80;3.30;;;;;;;;;;5013344;28;20643;-76
2023/04/14 04:44:02;;;;;;;4.17;3.20;;;;;;;;;;5012798;28;20187;-76
2023/04/14 04:46:37;;;;;;;5.40;3.33;;;;;;;;;;5012951;28;20211;-76
2023/04/14 04:49:03;;;;;;;6.10;3.87;;;;;;;;;;5012902;28;20199;-76
2023/04/14 04:51:30;;;;;;;5.37;3.73;;;;;;;;;;5014361;28;20178;-76
2023/04/14 04:53:56;;;;;;;6.20;3.90;;;;;;;;;;5012660;28;20178;-76
2023/04/14 04:56:22;;;;;;;5.70;4.30;;;;;;;;;;5012933;28;20655;-76
2023/04/14 04:58:48;;;;;;;5.10;4.17;;;;;;;;;;5013157;28;20183;-76
2023/04/14 05:01:20;;;;;;;5.63;3.67;;;;;;;;;;5014209;28;20194;-76
2023/04/14 05:03:47;;;;;;;6.67;4.00;;;;;;;;;;5012780;28;20175;-76
2023/04/14 05:06:13;;;;;;;5.97;3.43;;;;;;;;;;5013673;28;20178;-76
2023/04/14 05:08:39;;;;;;;5.73;4.00;;;;;;;;;;5012643;28;20535;-76
2023/04/14 05:11:05;;;;;;;4.60;3.60;;;;;;;;;;5012843;28;20183;-76
2023/04/14 05:13:32;;;;;;;7.23;3.77;;;;;;;;;;5013393;28;20172;-76
2023/04/14 05:16:05;;;;;;;5.90;3.80;;;;;;;;;;5013897;28;20180;-76
2023/04/14 05:18:31;;;;;;;6.83;4.23;;;;;;;;;;5013958;28;20607;-76
2023/04/14 05:21:01;;;;;;;6.73;4.77;;;;;;;;;;5013118;28;20199;-76
2023/04/14 05:23:27;;;;;;;5.83;3.67;;;;;;;;;;5012245;28;20717;-76
2023/04/14 05:25:57;;;;;;;5.10;4.27;;;;;;;;;;5012550;28;20215;-76
2023/04/14 05:28:23;;;;;;;6.47;4.17;;;;;;;;;;5013450;28;20194;-76
2023/04/14 05:30:49;;;;;;;4.57;3.63;;;;;;;;;;5012333;28;20215;-76
2023/04/14 05:33:16;;;;;;;5.83;4.17;;;;;;;;;;5013181;28;20261;-76
2023/04/14 05:35:43;;;;;;;5.13;4.03;;;;;;;;;;5013456;28;20178;-77
2023/04/14 05:38:10;;;;;;;7.07;4.73;;;;;;;;;;5013287;28;20278;-75
2023/04/14 05:40:36;;;;;;;5.63;3.73;;;;;;;;;;5013182;28;20214;-76
2023/04/14 05:43:02;;;;;;;6.03;4.43;;;;;;;;;;5012962;28;20255;-76
2023/04/14 05:45:29;;;;;;;7.20;4.27;;;;;;;;;;5013324;28;20179;-76
2023/04/14 05:47:55;;;;;;;6.13;4.90;;;;;;;;;;5013368;28;20612;-76
2023/04/14 05:50:21;;;;;;;7.90;5.23;;;;;;;;;;5013080;28;20222;-76
2023/04/14 05:52:48;;;;;;;5.77;4.80;;;;;;;;;;5013944;28;20168;-76
2023/04/14 05:55:14;;;;;;;5.53;4.10;;;;;;;;;;5013016;28;20178;-76
2023/04/14 05:57:40;;;;;;;4.47;3.73;;;;;;;;;;5011780;28;20221;-76
2023/04/14 06:00:07;;;;;;;7.13;4.80;;;;;;;;;;5012793;28;20175;-76
2023/04/14 06:02:39;;;;;;;7.00;4.50;;;;;;;;;;5013951;28;20187;-76
2023/04/14 06:05:06;;;;;;;6.00;4.97;;;;;;;;;;5025593;28;20183;-76
2023/04/14 06:07:32;;;;;;;6.40;5.00;;;;;;;;;;5003256;28;20272;-76
2023/04/14 06:09:59;;;;;;;8.97;5.60;;;;;;;;;;5012932;28;20219;-74
2023/04/14 06:12:25;;;;;;;6.03;5.30;;;;;;;;;;5019405;28;20179;-76
2023/04/14 06:14:51;;;;;;;7.80;5.27;;;;;;;;;;5026192;28;20187;-76
2023/04/14 06:17:17;;;;;;;11.27;6.13;;;;;;;;;;5018742;28;20231;-75
2023/04/14 06:19:45;;;;;;;6.97;5.20;;;;;;;;;;5018181;28;20187;-74
2023/04/14 06:22:15;;;;;;;9.63;6.50;;;;;;;;;;5013687;28;20523;-74
2023/04/14 06:24:41;;;;;;;6.93;4.87;;;;;;;;;;5012434;28;20183;-74
2023/04/14 06:27:08;;;;;;;8.83;6.10;;;;;;;;;;5012193;28;20310;-81
2023/04/14 06:29:34;;;;;;;9.83;5.37;;;;;;;;;;5019672;28;20214;-76
2023/04/14 06:32:00;;;;;;;7.50;4.73;;;;;;;;;;4997744;28;20234;-76
2023/04/14 06:34:26;;;;;;;6.73;5.00;;;;;;;;;;5018840;28;20274;-76
2023/04/14 06:36:52;;;;;;;5.83;4.60;;;;;;;;;;5012526;28;20213;-76
2023/04/14 06:39:20;;;;;;;7.27;5.97;;;;;;;;;;5010633;28;20278;-76
2023/04/14 06:41:46;;;;;;;9.80;6.27;;;;;;;;;;5020786;28;20273;-76
2023/04/14 06:44:13;;;;;;;10.97;6.93;;;;;;;;;;5013596;28;20187;-76
2023/04/14 06:46:39;;;;;;;9.23;6.20;;;;;;;;;;4998161;28;20217;-76
2023/04/14 06:49:06;;;;;;;11.03;5.83;;;;;;;;;;5011316;28;20229;-76
2023/04/14 06:51:32;;;;;;;11.90;5.83;;;;;;;;;;5013869;28;20262;-75
2023/04/14 06:53:58;;;;;;;12.10;5.97;;;;;;;;;;5008005;28;20304;-75
2023/04/14 06:56:24;;;;;;;9.90;5.90;;;;;;;;;;5008867;28;20191;-76
2023/04/14 06:58:51;;;;;;;7.73;5.53;;;;;;;;;;5009678;28;20186;-79
2023/04/14 07:01:18;;;;;;;8.80;5.80;;;;;;;;;;5011934;28;20179;-78
2023/04/14 07:03:49;;;;;;;11.10;6.00;;;;;;;;;;5012869;28;20186;-79
2023/04/14 07:06:18;;;;;;;10.13;5.60;;;;;;;;;;5014648;28;20193;-77
2023/04/14 07:08:47;;;;;;;10.73;5.60;;;;;;;;;;5014821;28;20194;-78
2023/04/14 07:11:16;;;;;;;10.07;5.33;;;;;;;;;;5014642;28;20240;-78
2023/04/14 07:13:42;;;;;;;9.80;6.00;;;;;;;;;;5014741;28;20209;-78
2023/04/14 07:16:10;;;;;;;13.10;6.97;;;;;;;;;;5013818;28;20203;-79
2023/04/14 07:18:40;;;;;;;11.03;6.40;;;;;;;;;;5013147;28;20193;-79
2023/04/14 07:21:08;;;;;;;9.27;6.13;;;;;;;;;;5013510;28;20183;-78
2023/04/14 07:23:34;;;;;;;13.83;6.73;;;;;;;;;;5026688;28;20191;-78
2023/04/14 07:26:00;;;;;;;10.90;5.70;;;;;;;;;;5013473;28;20191;-78
2023/04/14 07:28:27;;;;;;;9.13;6.23;;;;;;;;;;5014318;28;20207;-77
2023/04/14 07:30:53;;;;;;;14.90;6.97;;;;;;;;;;4996505;28;20210;-78
2023/04/14 07:33:24;;;;;;;15.37;6.80;;;;;;;;;;5012524;28;20191;-78
2023/04/14 07:35:53;;;;;;;10.63;6.17;;;;;;;;;;5013012;28;20191;-78
2023/04/14 07:38:19;;;;;;;10.20;6.00;;;;;;;;;;5013565;28;20198;-77
2023/04/14 07:40:45;;;;;;;13.47;6.37;;;;;;;;;;5014777;28;20680;-78
2023/04/14 07:43:12;;;;;;;8.83;5.80;;;;;;;;;;5013481;28;20179;-78
2023/04/14 07:45:38;;;;;;;9.07;5.80;;;;;;;;;;5012017;28;20183;-77
2023/04/14 07:48:05;;;;;;;10.27;5.57;;;;;;;;;;5011272;28;20210;-78
2023/04/14 07:50:31;;;;;;;10.13;5.30;;;;;;;;;;5009363;28;20215;-74
2023/04/14 07:52:58;;;;;;;11.30;5.33;;;;;;;;;;5009935;28;20176;-76
2023/04/14 07:55:25;;;;;;;11.23;5.40;;;;;;;;;;5032958;28;20183;-78
2023/04/14 07:57:51;;;;;;;11.10;4.90;;;;;;;;;;5010997;28;20214;-78
2023/04/14 08:00:17;;;;;;;9.50;5.20;;;;;;;;;;5012816;28;20183;-78
2023/04/14 08:02:43;;;;;;;8.70;4.80;;;;;;;;;;4996234;28;20253;-78
2023/04/14 08:05:09;;;;;;;9.03;4.80;;;;;;;;;;5014445;28;20270;-78
2023/04/14 08:07:37;;;;;;;9.00;5.00;;;;;;;;;;5012780;28;20219;-78
2023/04/14 08:10:03;;;;;;;7.73;4.83;;;;;;;;;;5013884;28;20278;-78
2023/04/14 08:12:30;;;;;;;10.80;4.77;;;;;;;;;;5014017;28;20179;-78
2023/04/14 08:14:56;;;;;;;8.27;4.47;;;;;;;;;;5012753;28;20186;-78
2023/04/14 08:17:23;;;;;;;11.50;4.33;;;;;;;;;;5011541;28;20202;-77
2023/04/14 08:19:49;;;;;;;10.90;4.63;;;;;;;;;;5013486;28;20234;-78
2023/04/14 08:22:15;;;;;;;11.93;4.70;;;;;;;;;;5011443;28;20191;-78
2023/04/14 08:24:41;;;;;;;10.73;4.87;;;;;;;;;;5012846;28;20199;-78
2023/04/14 08:27:07;;;;;;;8.23;4.67;;;;;;;;;;5044445;28;20213;-78
2023/04/14 08:29:34;;;;;;;8.20;4.60;;;;;;;;;;5012488;28;20235;-78
2023/04/14 08:32:00;;;;;;;10.60;4.33;;;;;;;;;;5010956;28;20179;-77
2023/04/14 08:34:27;;;;;;;8.77;4.10;;;;;;;;;;5044954;28;20196;-78
2023/04/14 08:36:53;;;;;;;8.37;4.20;;;;;;;;;;5011705;28;20720;-78
2023/04/14 08:39:19;;;;;;;8.47;4.27;;;;;;;;;;5011881;28;20194;-78
2023/04/14 08:41:45;;;;;;;7.33;3.80;;;;;;;;;;4993198;28;20199;-78
2023/04/14 08:44:11;;;;;;;8.07;3.40;;;;;;;;;;5027855;28;20184;-79
2023/04/14 08:46:38;;;;;;;8.03;3.53;;;;;;;;;;5010600;28;20517;-79
2023/04/14 08:49:09;;;;;;;7.70;4.03;;;;;;;;;;5011619;28;20201;-78
2023/04/14 08:51:35;;;;;;;8.90;3.60;;;;;;;;;;5017380;28;20241;-78
2023/04/14 08:54:03;;;;;;;9.20;4.43;;;;;;;;;;5014915;28;20749;-78
2023/04/14 08:56:42;;;;;;;8.70;3.87;;;;;;;;;;5020054;28;20202;-79
2023/04/14 08:59:11;;;;;;;8.83;4.23;;;;;;;;;;5019059;28;20186;-78
2023/04/14 09:01:38;;;;;;;8.27;3.90;;;;;;;;;;5017446;28;20179;-78
2023/04/14 09:04:04;;;;;;;9.63;4.50;;;;;;;;;;5034450;28;20199;-78
2023/04/14 09:06:31;;;;;;;9.50;4.70;;;;;;;;;;5018362;28;20215;-78
2023/04/14 09:08:59;;;;;;;10.13;4.50;;;;;;;;;;5017058;28;20290;-79
2023/04/14 09:11:25;;;;;;;9.27;5.20;;;;;;;;;;5019922;28;20186;-78
2023/04/14 09:13:53;;;;;;;11.13;5.47;;;;;;;;;;5020098;28;20206;-78
2023/04/14 09:16:19;;;;;;;10.50;5.27;;;;;;;;;;5020266;28;20180;-78
2023/04/14 09:18:45;;;;;;;8.83;4.77;;;;;;;;;;5034946;28;20187;-78
2023/04/14 09:21:12;;;;;;;11.30;4.57;;;;;;;;;;5018201;28;20171;-78
2023/04/14 09:23:40;;;;;;;8.47;4.70;;;;;;;;;;5019925;28;20718;-81
2023/04/14 09:26:09;;;;;;;12.40;5.00;;;;;;;;;;5012085;28;20196;-78
2023/04/14 09:28:36;;;;;;;10.77;4.70;;;;;;;;;;5017189;28;20179;-79
2023/04/14 09:31:02;;;;;;;12.33;4.40;;;;;;;;;;5016082;28;20289;-78
2023/04/14 09:33:28;;;;;;;8.67;4.63;;;;;;;;;;5027525;28;20454;-79
2023/04/14 09:35:54;;;;;;;9.47;4.17;;;;;;;;;;5018699;28;20274;-79
2023/04/14 09:38:34;;;;;;;6.70;4.00;;;;;;;;;;5029356;28;20233;-79
2023/04/14 09:41:00;;;;;;;7.07;4.20;;;;;;;;;;4985876;28;20191;-79
2023/04/14 09:43:28;;;;;;;6.87;3.80;;;;;;;;;;5015231;28;20175;-79
2023/04/14 09:45:54;;;;;;;7.03;3.33;;;;;;;;;;5014163;28;20191;-77
2023/04/14 09:48:21;;;;;;;8.23;3.53;;;;;;;;;;5014212;28;20222;-76
2023/04/14 09:50:57;;;;;;;9.80;4.00;;;;;;;;;;5015216;28;20630;-78
2023/04/14 09:53:30;;;;;;;9.20;4.40;;;;;;;;;;5014714;28;20191;-78
2023/04/14 09:55:58;;;;;;;9.73;3.90;;;;;;;;;;5015808;28;20186;-77
2023/04/14 09:58:28;;;;;;;6.60;3.67;;;;;;;;;;5027993;28;20194;-77
2023/04/14 10:00:56;;;;;;;10.17;3.93;;;;;;;;;;5029433;28;20665;-77
2023/04/14 10:03:33;;;;;;;7.30;3.70;;;;;;;;;;5032946;28;20190;-76
2023/04/14 10:06:00;;;;;;;7.80;3.87;;;;;;;;;;5027102;28;20200;-77
2023/04/14 10:08:36;;;;;;;9.33;3.47;;;;;;;;;;5010467;28;20215;-77
2023/04/14 10:11:15;;;;;;;7.10;3.10;;;;;;;;;;5016971;28;20209;-77
2023/04/14 10:13:42;;;;;;;7.80;3.07;;;;;;;;;;5014444;28;20233;-78
2023/04/14 10:16:09;;;;;;;6.47;2.70;;;;;;;;;;5010999;28;20425;-77
2023/04/14 10:18:35;;;;;;;7.33;2.70;;;;;;;;;;5014684;28;20659;-78
2023/04/14 10:21:03;;;;;;;10.60;3.20;;;;;;;;;;5014433;28;20283;-77
2023/04/14 10:23:32;;;;;;;7.77;2.80;;;;;;;;;;5012695;28;20662;-77
2023/04/14 10:25:59;;;;;;;9.63;3.10;;;;;;;;;;4999483;28;20191;-77
2023/04/14 10:28:25;;;;;;;8.90;3.23;;;;;;;;;;5014878;28;20203;-77
2023/04/14 10:30:52;;;;;;;7.03;2.93;;;;;;;;;;5013152;28;20344;-78
2023/04/14 10:33:18;;;;;;;8.20;3.33;;;;;;;;;;5027416;28;20243;-78
2023/04/14 10:35:45;;;;;;;7.37;3.00;;;;;;;;;;5024273;28;20183;-78
2023/04/14 10:38:12;;;;;;;6.90;2.57;;;;;;;;;;5013398;28;20203;-77
2023/04/14 10:40:48;;;;;;;9.47;3.10;;;;;;;;;;5013841;28;20190;-78
2023/04/14 10:43:14;;;;;;;7.93;3.13;;;;;;;;;;5015740;28;20241;-77
2023/04/14 10:45:52;;;;;;;5.07;2.70;;;;;;;;;;5034233;28;20163;-78
2023/04/14 10:48:18;;;;;;;6.83;3.00;;;;;;;;;;5032334;28;20209;-78
2023/04/14 10:50:47;;;;;;;11.07;3.13;;;;;;;;;;5025967;28;20769;-78
2023/04/14 10:53:14;;;;;;;12.17;3.30;;;;;;;;;;5025877;28;20179;-80
2023/04/14 10:55:46;;;;;;;6.23;3.00;;;;;;;;;;5003743;28;20278;-80
2023/04/14 10:58:22;;;;;;;8.17;3.53;;;;;;;;;;4998444;28;20721;-79
2023/04/14 11:00:48;;;;;;;6.80;3.20;;;;;;;;;;5029001;28;20300;-75
2023/04/14 11:03:16;;;;;;;7.67;3.30;;;;;;;;;;5028882;28;20191;-75
2023/04/14 11:05:43;;;;;;;8.07;3.70;;;;;;;;;;5030485;28;20179;-75
2023/04/14 11:08:14;;;;;;;7.70;3.20;;;;;;;;;;5020564;28;20223;-77
2023/04/14 11:10:41;;;;;;;6.73;3.20;;;;;;;;;;5014801;28;20345;-77
2023/04/14 11:13:10;;;;;;;10.43;3.30;;;;;;;;;;5016400;28;20191;-74
2023/04/14 11:15:46;;;;;;;8.03;3.63;;;;;;;;;;5012578;28;20175;-75
2023/04/14 11:18:32;;;;;;;8.60;3.30;;;;;;;;;;5011458;28;20198;-76
2023/04/14 11:21:05;;;;;;;6.83;3.50;;;;;;;;;;5011177;28;20187;-75
2023/04/14 11:23:31;;;;;;;8.40;3.33;;;;;;;;;;5011186;28;20214;-75
2023/04/14 11:25:58;;;;;;;8.10;3.10;;;;;;;;;;5010139;28;20211;-75
2023/04/14 11:28:31;;;;;;;10.07;3.50;;;;;;;;;;5029109;28;20205;-76
2023/04/14 11:30:58;;;;;;;6.53;2.90;;;;;;;;;;5022998;28;20205;-75
2023/04/14 11:33:31;;;;;;;7.47;2.60;;;;;;;;;;5010279;28;20186;-75
2023/04/14 11:35:58;;;;;;;6.00;2.57;;;;;;;;;;5010824;28;20195;-75
2023/04/14 11:38:24;;;;;;;8.33;3.20;;;;;;;;;;5011087;28;20203;-75
2023/04/14 11:40:51;;;;;;;4.83;2.70;;;;;;;;;;5010748;28;20207;-75
2023/04/14 11:43:17;;;;;;;7.20;2.83;;;;;;;;;;5011761;28;20181;-74
2023/04/14 11:45:46;;;;;;;6.97;2.80;;;;;;;;;;5013560;28;20631;-75
2023/04/14 11:48:14;;;;;;;9.70;2.70;;;;;;;;;;5019379;28;20214;-79
2023/04/14 11:50:42;;;;;;;4.63;2.63;;;;;;;;;;5031691;28;20267;-76
2023/04/14 11:53:09;;;;;;;6.03;2.70;;;;;;;;;;5030763;28;20261;-76
2023/04/14 11:55:36;;;;;;;7.23;2.93;;;;;;;;;;5005715;28;20192;-76
2023/04/14 11:58:03;;;;;;;8.13;2.87;;;;;;;;;;5008564;28;20674;-76
2023/04/14 12:00:29;;;;;;;4.57;2.40;;;;;;;;;;5009674;28;20559;-76
2023/04/14 12:02:56;;;;;;;6.30;2.37;;;;;;;;;;5005208;28;20202;-76
2023/04/14 12:05:29;;;;;;;7.37;2.43;;;;;;;;;;5010641;28;20207;-76
2023/04/14 12:08:03;;;;;;;5.93;2.37;;;;;;;;;;5008293;28;20218;-76
2023/04/14 12:10:30;;;;;;;5.20;2.30;;;;;;;;;;5007369;28;20219;-76
2023/04/14 12:13:02;;;;;;;5.60;2.50;;;;;;;;;;5008783;28;20187;-76
2023/04/14 12:15:29;;;;;;;7.37;2.00;;;;;;;;;;5009252;28;20194;-76
2023/04/14 12:17:56;;;;;;;5.60;2.00;;;;;;;;;;5009253;28;20638;-76
2023/04/14 12:20:22;;;;;;;6.97;2.20;;;;;;;;;;5009531;28;20210;-76
2023/04/14 12:22:49;;;;;;;4.17;2.13;;;;;;;;;;5008262;28;20191;-76
2023/04/14 12:25:15;;;;;;;4.17;2.10;;;;;;;;;;5009594;28;20195;-77
2023/04/14 12:27:41;;;;;;;5.87;2.17;;;;;;;;;;5009271;28;20599;-77
2023/04/14 12:30:09;;;;;;;4.67;2.03;;;;;;;;;;5008314;28;20573;-76
2023/04/14 12:32:42;;;;;;;5.27;2.20;;;;;;;;;;5009836;28;20731;-77
2023/04/14 12:35:09;;;;;;;5.70;2.20;;;;;;;;;;5010973;28;20189;-77
2023/04/14 12:37:37;;;;;;;5.03;2.03;;;;;;;;;;5012197;28;20292;-77
2023/04/14 12:40:05;;;;;;;4.43;2.03;;;;;;;;;;5012290;28;20257;-76
2023/04/14 12:42:44;;;;;;;5.87;2.10;;;;;;;;;;5013196;28;20722;-77
2023/04/14 12:45:10;;;;;;;7.77;2.13;;;;;;;;;;5013625;28;20600;-77
2023/04/14 12:47:37;;;;;;;4.10;1.90;;;;;;;;;;5013600;28;20290;-77
2023/04/14 12:50:22;;;;;;;4.80;2.00;;;;;;;;;;5011152;28;20219;-77
2023/04/14 12:52:48;;;;;;;6.07;1.97;;;;;;;;;;5012710;28;20253;-77
2023/04/14 12:55:26;;;;;;;5.73;2.10;;;;;;;;;;5012062;28;20229;-77
2023/04/14 12:57:53;;;;;;;6.20;2.10;;;;;;;;;;5011515;28;20202;-77
2023/04/14 13:00:22;;;;;;;4.73;1.97;;;;;;;;;;5013371;28;20617;-77
2023/04/14 13:02:49;;;;;;;4.93;1.90;;;;;;;;;;5012349;28;20193;-77
2023/04/14 13:05:16;;;;;;;4.47;2.00;;;;;;;;;;5012476;28;20183;-77
2023/04/14 13:07:42;;;;;;;4.23;1.80;;;;;;;;;;5013073;28;20211;-77
2023/04/14 13:10:09;;;;;;;4.87;2.13;;;;;;;;;;5011807;28;20222;-77
2023/04/14 13:12:36;;;;;;;5.50;2.00;;;;;;;;;;5011622;28;20182;-77
2023/04/14 13:15:02;;;;;;;5.33;2.13;;;;;;;;;;5009635;28;20182;-77
2023/04/14 13:17:28;;;;;;;4.80;2.10;;;;;;;;;;5009812;28;20199;-77
2023/04/14 13:19:55;;;;;;;5.17;2.00;;;;;;;;;;5014977;28;20217;-77
2023/04/14 13:22:21;;;;;;;4.60;1.60;;;;;;;;;;5013895;28;20274;-77
2023/04/14 13:24:48;;;;;;;4.13;1.77;;;;;;;;;;5020789;28;20648;-77
2023/04/14 13:27:15;;;;;;;5.23;1.93;;;;;;;;;;5024331;28;20294;-77
2023/04/14 13:29:41;;;;;;;3.50;1.90;;;;;;;;;;5014590;28;20215;-77
2023/04/14 13:32:09;;;;;;;5.57;2.20;;;;;;;;;;5014444;28;20245;-77
2023/04/14 13:34:36;;;;;;;4.33;1.80;;;;;;;;;;5014687;28;20190;-77
2023/04/14 13:37:02;;;;;;;4.40;2.00;;;;;;;;;;5016283;28;20235;-77
2023/04/14 13:39:28;;;;;;;4.30;1.83;;;;;;;;;;5015019;28;20269;-77
2023/04/14 13:41:54;;;;;;;5.00;1.83;;;;;;;;;;5019790;28;20193;-77
2023/04/14 13:44:20;;;;;;;3.90;2.07;;;;;;;;;;5008731;28;20674;-77
2023/04/14 13:46:48;;;;;;;8.77;1.93;;;;;;;;;;5009736;28;20213;-78
2023/04/14 13:49:14;;;;;;;3.80;1.60;;;;;;;;;;5008439;28;20308;-82
2023/04/14 13:51:40;;;;;;;7.03;2.00;;;;;;;;;;5010115;28;20179;-77
2023/04/14 13:54:06;;;;;;;5.00;2.07;;;;;;;;;;5014727;28;20292;-77
2023/04/14 13:56:33;;;;;;;3.63;1.70;;;;;;;;;;4998937;28;20255;-79
2023/04/14 13:58:59;;;;;;;4.07;1.90;;;;;;;;;;5019005;28;20645;-79
2023/04/14 14:01:26;;;;;;;5.43;2.10;;;;;;;;;;5015497;28;20209;-79
2023/04/14 14:03:52;;;;;;;4.07;1.90;;;;;;;;;;5013659;28;20247;-79
2023/04/14 14:06:18;;;;;;;4.60;1.70;;;;;;;;;;5015647;28;20171;-79
2023/04/14 14:08:44;;;;;;;6.30;2.00;;;;;;;;;;5016292;28;20190;-79
2023/04/14 14:11:11;;;;;;;3.97;1.70;;;;;;;;;;5014772;28;20210;-79
2023/04/14 14:13:38;;;;;;;4.20;1.90;;;;;;;;;;5014994;28;20180;-79
2023/04/14 14:16:06;;;;;;;4.57;1.60;;;;;;;;;;5015685;28;20183;-79
2023/04/14 14:18:32;;;;;;;4.23;1.87;;;;;;;;;;5013739;28;20270;-79
2023/04/14 14:20:58;;;;;;;5.57;2.07;;;;;;;;;;5012527;28;20191;-79
2023/04/14 14:23:25;;;;;;;5.47;2.27;;;;;;;;;;5013338;28;20569;-78
2023/04/14 14:25:52;;;;;;;7.23;2.10;;;;;;;;;;5013512;28;20179;-79
2023/04/14 14:28:19;;;;;;;5.47;2.03;;;;;;;;;;5013817;28;20207;-79
2023/04/14 14:30:46;;;;;;;4.70;2.17;;;;;;;;;;5013494;28;20293;-79
2023/04/14 14:33:12;;;;;;;4.87;2.30;;;;;;;;;;5012821;28;20180;-79
2023/04/14 14:35:38;;;;;;;4.83;2.40;;;;;;;;;;5015216;28;20182;-79
2023/04/14 14:38:04;;;;;;;5.40;2.13;;;;;;;;;;5013249;28;20565;-79
2023/04/14 14:40:31;;;;;;;5.60;2.10;;;;;;;;;;5012048;28;20190;-79
2023/04/14 14:42:57;;;;;;;4.30;1.90;;;;;;;;;;5012198;28;20175;-79
2023/04/14 14:45:23;;;;;;;4.87;2.10;;;;;;;;;;5008982;28;20278;-79